Time;durP1;ratioP1;P1;durP2;ratioP2;P2;SDS_P1;SDS_P2;PMS_P1;PMS_P2;Temp;Humidity;BMP_temperature;BMP_pressure;BME280_temperature;BME280_humidity;BME280_pressure;Samples;Min_cycle;Max_cycle;Signal;HPM_P1;HPM_P2
2022/11/11 00:02:29;;;;;;;17.67;10.32;;;6.20;99.90;;;;;;4999073;28;20089;-66
2022/11/11 00:05:15;;;;;;;17.02;9.57;;;6.10;99.90;;;;;;5006419;28;20050;-67
2022/11/11 00:08:02;;;;;;;17.40;9.98;;;6.10;99.90;;;;;;5001040;28;20069;-67
2022/11/11 00:10:48;;;;;;;19.60;10.80;;;6.10;99.90;;;;;;5012126;28;20049;-66
2022/11/11 00:13:36;;;;;;;17.63;9.95;;;6.10;99.90;;;;;;5015210;28;20125;-66
2022/11/11 00:16:22;;;;;;;16.70;10.27;;;6.10;99.90;;;;;;5011131;28;20512;-66
2022/11/11 00:25:24;;;;;;;18.48;10.25;;;6.10;99.90;;;;;;4997871;28;20045;-67
2022/11/11 00:28:10;;;;;;;16.27;9.70;;;6.10;99.90;;;;;;4999715;28;20041;-67
2022/11/11 00:31:05;;;;;;;15.32;9.98;;;6.00;99.90;;;;;;5008953;28;20514;-66
2022/11/11 00:33:53;;;;;;;13.35;9.45;;;6.00;99.90;;;;;;5018170;28;20041;-66
2022/11/11 00:36:38;;;;;;;17.63;9.27;;;6.00;99.90;;;;;;5012804;28;20042;-66
2022/11/11 00:39:29;;;;;;;21.23;10.25;;;5.90;99.90;;;;;;5001059;28;20124;-66
2022/11/11 00:42:15;;;;;;;16.58;9.75;;;5.90;99.90;;;;;;5009627;28;20511;-66
2022/11/11 00:45:01;;;;;;;14.95;9.18;;;5.90;99.90;;;;;;5004664;28;20473;-65
2022/11/11 00:50:58;;;;;;;14.82;8.93;;;5.90;99.90;;;;;;5008926;28;20045;-66
2022/11/11 00:53:44;;;;;;;15.93;9.93;;;5.80;99.90;;;;;;4998281;28;20042;-66
2022/11/11 00:56:30;;;;;;;13.70;9.18;;;5.80;99.90;;;;;;5007836;28;20049;-67
2022/11/11 00:59:16;;;;;;;21.92;9.85;;;5.80;99.90;;;;;;4999687;28;20665;-66
2022/11/11 01:02:02;;;;;;;16.33;9.45;;;5.80;99.90;;;;;;5012759;28;20172;-66
2022/11/11 01:04:47;;;;;;;16.77;9.65;;;5.80;99.90;;;;;;5008948;28;20046;-67
2022/11/11 01:07:34;;;;;;;14.98;8.57;;;5.80;99.90;;;;;;5000404;28;20042;-67
2022/11/11 01:10:37;;;;;;;18.13;9.98;;;5.80;99.90;;;;;;5007960;28;20048;-67
2022/11/11 01:13:24;;;;;;;14.75;8.95;;;5.80;99.90;;;;;;5012398;28;20820;-68
2022/11/11 01:16:13;;;;;;;15.30;8.95;;;5.70;99.90;;;;;;5006262;28;20046;-67
2022/11/11 01:18:59;;;;;;;14.23;8.82;;;5.70;99.90;;;;;;5013984;28;20046;-67
2022/11/11 01:21:45;;;;;;;14.48;8.80;;;5.60;99.90;;;;;;5013756;28;20050;-67
2022/11/11 01:24:31;;;;;;;13.05;8.63;;;5.60;99.90;;;;;;5013504;28;20046;-67
2022/11/11 01:27:17;;;;;;;15.80;8.35;;;5.60;99.90;;;;;;5012676;28;20048;-67
2022/11/11 01:30:04;;;;;;;13.38;8.40;;;5.60;99.90;;;;;;5007859;28;20078;-67
2022/11/11 01:32:50;;;;;;;16.48;8.82;;;5.50;99.90;;;;;;5012739;28;20504;-67
2022/11/11 01:35:40;;;;;;;12.48;8.85;;;5.50;99.90;;;;;;5005932;28;20125;-66
2022/11/11 01:38:26;;;;;;;14.57;8.68;;;5.50;99.90;;;;;;5010242;28;20092;-66
2022/11/11 01:41:35;;;;;;;18.10;8.68;;;5.40;99.90;;;;;;5005250;28;20463;-65
2022/11/11 01:44:45;;;;;;;16.67;8.30;;;5.40;99.90;;;;;;5012014;28;20072;-66
2022/11/11 01:49:17;;;;;;;14.38;8.50;;;5.40;99.90;;;;;;5009542;28;20168;-65
2022/11/11 01:50:58;;;;;;;15.50;9.43;;;5.40;99.90;;;;;;4997881;28;20050;-65
2022/11/11 01:53:47;;;;;;;19.45;9.98;;;5.40;99.90;;;;;;5007312;28;20050;-65
2022/11/11 01:56:33;;;;;;;15.55;9.50;;;5.30;99.90;;;;;;4993738;28;20471;-65
2022/11/11 01:59:20;;;;;;;15.60;9.27;;;5.30;99.90;;;;;;5006402;28;20503;-66
2022/11/11 02:02:30;;;;;;;18.42;10.15;;;5.30;99.90;;;;;;5003054;28;20173;-66
2022/11/11 02:08:33;;;;;;;15.90;10.57;;;5.20;99.90;;;;;;5005592;28;20042;-66
2022/11/11 02:14:36;;;;;;;17.35;9.68;;;5.20;99.90;;;;;;5006316;28;20501;-66
2022/11/11 02:17:24;;;;;;;14.50;9.75;;;5.10;99.90;;;;;;5001091;28;20093;-66
2022/11/11 02:20:14;;;;;;;14.20;9.95;;;5.10;99.90;;;;;;5005246;28;20083;-68
2022/11/11 02:23:20;;;;;;;14.90;9.95;;;5.10;99.90;;;;;;4993401;28;20049;-66
2022/11/11 02:26:09;;;;;;;14.40;9.60;;;5.00;99.90;;;;;;5006372;28;20038;-66
2022/11/11 02:28:56;;;;;;;17.35;10.52;;;5.00;99.90;;;;;;4997662;28;20076;-66
2022/11/11 02:31:42;;;;;;;17.67;10.02;;;5.00;99.90;;;;;;4989193;28;20113;-66
2022/11/11 02:34:31;;;;;;;15.73;10.02;;;5.00;99.90;;;;;;5010039;28;20497;-66
2022/11/11 02:37:22;;;;;;;17.58;9.80;;;5.00;99.90;;;;;;5001203;28;20052;-66
2022/11/11 02:40:09;;;;;;;29.67;14.68;;;5.00;99.90;;;;;;5012111;28;20536;-66
2022/11/11 02:42:55;;;;;;;25.23;13.50;;;4.90;99.90;;;;;;5012646;28;20049;-66
2022/11/11 02:45:41;;;;;;;23.35;11.38;;;4.90;99.90;;;;;;4992366;28;20541;-66
2022/11/11 02:48:27;;;;;;;16.25;9.20;;;5.00;99.90;;;;;;5008781;28;20128;-66
2022/11/11 02:51:13;;;;;;;16.65;10.23;;;4.90;99.90;;;;;;5000952;28;20110;-66
2022/11/11 02:54:02;;;;;;;15.90;9.35;;;4.90;99.90;;;;;;5011359;28;20508;-66
2022/11/11 02:57:06;;;;;;;17.30;9.93;;;4.90;99.90;;;;;;5010528;28;20578;-66
2022/11/11 02:59:52;;;;;;;16.50;9.80;;;4.90;99.90;;;;;;5012109;28;20504;-66
2022/11/11 03:02:38;;;;;;;17.27;9.85;;;4.90;99.90;;;;;;5006085;28;20512;-66
2022/11/11 03:05:24;;;;;;;15.70;9.45;;;4.90;99.90;;;;;;5006882;28;20420;-66
2022/11/11 03:08:10;;;;;;;16.27;9.93;;;4.90;99.90;;;;;;5000976;28;20430;-66
2022/11/11 03:10:56;;;;;;;16.90;9.25;;;4.90;99.90;;;;;;5011106;28;20066;-67
2022/11/11 03:13:42;;;;;;;16.00;9.80;;;4.90;99.90;;;;;;5009814;28;20492;-65
2022/11/11 03:19:33;;;;;;;15.55;10.10;;;4.80;99.90;;;;;;4996612;28;20042;-66
2022/11/11 03:22:18;;;;;;;13.32;8.65;;;4.80;99.90;;;;;;5006703;28;20042;-65
2022/11/11 03:25:39;;;;;;;17.95;9.82;;;4.80;99.90;;;;;;5009360;28;20045;-65
2022/11/11 03:28:25;;;;;;;14.38;9.00;;;4.80;99.90;;;;;;5009323;28;20152;-66
2022/11/11 03:31:12;;;;;;;14.02;9.88;;;4.70;99.90;;;;;;5011037;28;20045;-66
2022/11/11 03:34:17;;;;;;;16.40;9.30;;;4.70;99.90;;;;;;5008824;28;20124;-66
2022/11/11 03:40:12;;;;;;;16.15;9.05;;;4.70;99.90;;;;;;5007262;28;20084;-66
2022/11/11 03:42:58;;;;;;;16.70;8.45;;;4.70;99.90;;;;;;5006185;28;20046;-67
2022/11/11 03:45:51;;;;;;;11.83;8.63;;;4.70;99.90;;;;;;4999386;28;20504;-66
2022/11/11 03:48:37;;;;;;;13.25;8.50;;;4.60;99.90;;;;;;5009712;28;20296;-66
2022/11/11 03:51:23;;;;;;;13.02;8.48;;;4.70;99.90;;;;;;4997315;28;20047;-66
2022/11/11 03:54:09;;;;;;;14.60;9.10;;;4.70;99.90;;;;;;4998808;28;20513;-66
2022/11/11 03:57:29;;;;;;;15.23;8.57;;;4.70;99.90;;;;;;5010433;28;20139;-66
2022/11/11 04:00:02;;;;;;;17.88;8.55;;;4.70;99.90;;;;;;5010591;28;20076;-69
2022/11/11 04:12:26;;;;;;;16.50;8.57;;;4.80;99.90;;;;;;5001144;28;20049;-66
2022/11/11 04:18:16;;;;;;;16.52;8.95;;;4.80;99.90;;;;;;4996715;28;20402;-66
2022/11/11 04:27:15;;;;;;;12.07;8.52;;;4.80;99.90;;;;;;5008848;28;20057;-66
2022/11/11 04:30:01;;;;;;;15.90;8.65;;;4.80;99.90;;;;;;5010760;28;20408;-66
2022/11/11 04:32:47;;;;;;;13.43;8.50;;;4.80;99.90;;;;;;5007264;28;20038;-67
2022/11/11 04:35:33;;;;;;;14.07;7.97;;;4.90;99.90;;;;;;4998439;28;20034;-66
2022/11/11 04:41:24;;;;;;;14.05;7.57;;;4.80;99.90;;;;;;5009017;28;20049;-65
2022/11/11 04:47:35;;;;;;;17.55;8.95;;;4.80;99.90;;;;;;5004008;28;20046;-65
2022/11/11 04:50:23;;;;;;;14.77;8.70;;;4.70;99.90;;;;;;5002180;28;20049;-64
2022/11/11 04:53:13;;;;;;;12.32;7.70;;;4.70;99.90;;;;;;5004897;28;20026;-65
2022/11/11 04:59:16;;;;;;;15.43;9.00;;;4.70;99.90;;;;;;4997710;28;20101;-65
2022/11/11 05:05:07;;;;;;;15.10;8.82;;;4.60;99.90;;;;;;4999389;28;20050;-65
2022/11/11 05:10:58;;;;;;;16.50;9.35;;;4.50;99.90;;;;;;5009241;28;20607;-65
2022/11/11 05:23:04;;;;;;;14.80;9.00;;;4.40;99.90;;;;;;5007962;28;20038;-66
2022/11/11 05:25:50;;;;;;;16.88;9.50;;;4.40;99.90;;;;;;5005075;28;20481;-66
2022/11/11 05:28:35;;;;;;;18.33;8.95;;;4.40;99.90;;;;;;5017289;28;20456;-66
2022/11/11 05:31:21;;;;;;;14.02;8.52;;;4.40;99.90;;;;;;5007059;28;20107;-65
2022/11/11 05:34:07;;;;;;;19.42;9.35;;;4.40;99.90;;;;;;5003762;28;20169;-65
2022/11/11 05:36:53;;;;;;;15.32;8.77;;;4.40;99.90;;;;;;5007841;28;20050;-65
2022/11/11 05:39:39;;;;;;;15.95;9.13;;;4.40;99.90;;;;;;5008160;28;20052;-65
2022/11/11 05:42:25;;;;;;;18.08;9.50;;;4.40;99.90;;;;;;5009108;28;20049;-65
2022/11/11 05:45:12;;;;;;;15.35;8.93;;;4.40;99.90;;;;;;5012251;28;20520;-66
2022/11/11 05:48:01;;;;;;;19.42;10.95;;;4.50;99.90;;;;;;5012713;28;20048;-65
2022/11/11 05:50:47;;;;;;;20.02;12.40;;;4.50;99.90;;;;;;5005417;28;20216;-66
2022/11/11 05:53:33;;;;;;;15.55;9.98;;;4.50;99.90;;;;;;5006033;28;20034;-65
2022/11/11 05:56:19;;;;;;;16.85;9.27;;;4.50;99.90;;;;;;5012345;28;20130;-66
2022/11/11 05:59:06;;;;;;;15.60;8.82;;;4.50;99.90;;;;;;5010674;28;20404;-66
2022/11/11 06:01:52;;;;;;;16.52;9.02;;;4.40;99.90;;;;;;5010501;28;20523;-66
2022/11/11 06:04:39;;;;;;;13.43;9.25;;;4.50;99.90;;;;;;5003682;28;20138;-66
2022/11/11 06:07:24;;;;;;;14.13;8.70;;;4.50;99.90;;;;;;5011066;28;20034;-66
2022/11/11 06:13:15;;;;;;;15.77;8.20;;;4.50;99.90;;;;;;5011162;28;20046;-66
2022/11/11 06:16:00;;;;;;;13.23;8.75;;;4.50;99.90;;;;;;5005145;28;20200;-66
2022/11/11 06:18:46;;;;;;;14.57;8.85;;;4.60;99.90;;;;;;5006765;28;20053;-66
2022/11/11 06:21:55;;;;;;;15.70;8.50;;;4.60;99.90;;;;;;5001827;28;20062;-66
2022/11/11 06:24:38;;;;;;;14.05;7.97;;;4.60;99.90;;;;;;4997119;28;20416;-66
2022/11/11 06:27:24;;;;;;;16.00;7.97;;;4.70;99.90;;;;;;5007402;28;20614;-66
2022/11/11 06:30:10;;;;;;;12.98;7.88;;;4.60;99.90;;;;;;5007792;28;20084;-66
2022/11/11 06:33:16;;;;;;;13.63;8.25;;;4.70;99.90;;;;;;5001867;28;20050;-67
2022/11/11 06:36:03;;;;;;;15.48;8.30;;;4.60;99.90;;;;;;5003510;28;20115;-67
2022/11/11 06:38:49;;;;;;;17.42;8.88;;;4.70;99.90;;;;;;5009587;28;20048;-66
2022/11/11 06:41:35;;;;;;;14.10;8.30;;;4.70;99.90;;;;;;5010906;28;20445;-66
2022/11/11 06:44:21;;;;;;;14.18;8.45;;;4.70;99.90;;;;;;5011403;28;20515;-65
2022/11/11 06:47:07;;;;;;;13.50;8.45;;;4.70;99.90;;;;;;5005327;28;20247;-68
2022/11/11 06:49:53;;;;;;;13.52;7.63;;;4.70;99.90;;;;;;5005948;28;20041;-66
2022/11/11 06:52:40;;;;;;;14.27;8.27;;;4.80;99.90;;;;;;5003241;28;20046;-66
2022/11/11 06:55:26;;;;;;;11.43;7.60;;;4.80;99.90;;;;;;4996193;28;20044;-66
2022/11/11 06:58:17;;;;;;;13.95;8.27;;;4.80;99.90;;;;;;5001989;28;20041;-66
2022/11/11 07:01:04;;;;;;;15.30;8.27;;;4.90;99.90;;;;;;4999352;28;20046;-64
2022/11/11 07:03:50;;;;;;;14.20;7.93;;;5.00;99.90;;;;;;5003956;28;20392;-66
2022/11/11 07:06:36;;;;;;;20.75;8.75;;;5.00;99.90;;;;;;5011018;28;20046;-65
2022/11/11 07:09:24;;;;;;;14.10;8.02;;;5.10;99.90;;;;;;4993146;28;20130;-66
2022/11/11 07:12:11;;;;;;;18.27;8.43;;;5.20;99.90;;;;;;4992442;28;20049;-65
2022/11/11 07:14:57;;;;;;;12.85;8.10;;;5.30;99.90;;;;;;4995369;28;20508;-67
2022/11/11 07:17:43;;;;;;;15.43;9.02;;;5.40;99.90;;;;;;5008802;28;20064;-66
2022/11/11 07:20:30;;;;;;;13.75;8.93;;;5.50;99.90;;;;;;4998160;28;20051;-65
2022/11/11 07:23:16;;;;;;;14.15;8.15;;;5.60;99.90;;;;;;4991470;28;20044;-65
2022/11/11 07:26:03;;;;;;;17.02;9.45;;;5.70;99.90;;;;;;4995586;28;20042;-66
2022/11/11 07:28:50;;;;;;;27.27;13.73;;;5.70;99.90;;;;;;4992599;28;20073;-66
2022/11/11 07:31:36;;;;;;;18.25;11.60;;;5.80;99.90;;;;;;4993399;28;20042;-65
2022/11/11 07:34:22;;;;;;;16.55;9.35;;;5.90;99.90;;;;;;4997510;28;20453;-65
2022/11/11 07:37:07;;;;;;;15.50;9.35;;;6.00;99.90;;;;;;4992637;28;20089;-67
2022/11/11 07:39:53;;;;;;;13.57;8.20;;;6.00;99.90;;;;;;4993156;28;20072;-66
2022/11/11 07:42:41;;;;;;;13.88;7.75;;;6.20;99.90;;;;;;4991392;28;20046;-65
2022/11/11 07:45:26;;;;;;;13.55;8.32;;;6.30;99.90;;;;;;5009463;28;20266;-65
2022/11/11 07:48:12;;;;;;;16.45;8.05;;;6.40;99.90;;;;;;4996758;28;20536;-66
2022/11/11 07:50:58;;;;;;;16.65;9.20;;;6.50;99.90;;;;;;4994487;28;20034;-66
2022/11/11 07:53:44;;;;;;;12.75;8.43;;;6.60;99.90;;;;;;4993990;28;20500;-67
2022/11/11 07:56:30;;;;;;;19.27;9.30;;;6.70;99.90;;;;;;4990720;28;20489;-66
2022/11/11 07:59:16;;;;;;;14.15;9.77;;;6.90;99.90;;;;;;5001011;28;20540;-66
2022/11/11 08:02:02;;;;;;;17.75;8.88;;;6.90;99.90;;;;;;5002353;28;20519;-66
2022/11/11 08:04:48;;;;;;;14.63;8.35;;;7.10;99.90;;;;;;5003246;28;20049;-67
2022/11/11 08:07:41;;;;;;;15.52;8.77;;;7.20;99.90;;;;;;4998609;28;20035;-66
2022/11/11 08:10:27;;;;;;;16.73;9.38;;;7.40;99.90;;;;;;4997551;28;20513;-67
2022/11/11 08:16:17;;;;;;;15.05;9.15;;;7.60;99.90;;;;;;4997886;28;20049;-66
2022/11/11 08:19:03;;;;;;;16.73;8.68;;;7.70;99.90;;;;;;5006802;28;20464;-68
2022/11/11 08:21:51;;;;;;;12.77;8.10;;;7.90;99.90;;;;;;4994934;28;20050;-66
2022/11/11 08:24:37;;;;;;;15.02;8.82;;;8.00;99.90;;;;;;4996741;28;20042;-67
2022/11/11 08:27:43;;;;;;;16.80;8.90;;;8.10;99.90;;;;;;5006630;28;20044;-67
2022/11/11 08:30:30;;;;;;;19.05;9.13;;;8.20;99.90;;;;;;5003192;28;20054;-66
2022/11/11 08:33:16;;;;;;;12.40;8.30;;;8.40;99.90;;;;;;4994803;28;20453;-66
2022/11/11 08:36:22;;;;;;;17.50;9.65;;;8.50;99.90;;;;;;5000671;28;20493;-67
2022/11/11 08:39:08;;;;;;;15.93;8.43;;;8.60;99.90;;;;;;4999404;28;20034;-68
2022/11/11 08:41:54;;;;;;;15.38;9.75;;;8.70;99.90;;;;;;5004625;28;20511;-68
2022/11/11 08:44:39;;;;;;;18.88;10.20;;;8.90;99.90;;;;;;5001029;28;20041;-67
2022/11/11 08:47:25;;;;;;;18.48;10.32;;;9.00;99.90;;;;;;4996501;28;20116;-67
2022/11/11 08:50:11;;;;;;;16.33;10.57;;;9.10;99.90;;;;;;5005868;28;20076;-67
2022/11/11 08:52:57;;;;;;;16.83;9.88;;;9.20;99.90;;;;;;4987491;28;20057;-68
2022/11/11 08:55:43;;;;;;;21.27;12.27;;;9.40;99.90;;;;;;4992746;28;20057;-68
2022/11/11 08:58:29;;;;;;;18.25;10.98;;;9.70;99.90;;;;;;5007183;28;20057;-68
2022/11/11 09:01:15;;;;;;;21.95;12.52;;;9.80;99.90;;;;;;4997689;28;20049;-66
2022/11/11 09:04:01;;;;;;;18.00;10.13;;;9.90;99.90;;;;;;5007186;28;20048;-66
2022/11/11 09:07:08;;;;;;;17.58;10.10;;;10.10;99.90;;;;;;5007385;28;20050;-67
2022/11/11 09:09:54;;;;;;;14.27;9.55;;;10.40;99.90;;;;;;5008019;28;20038;-67
2022/11/11 09:12:41;;;;;;;17.70;9.70;;;10.60;99.90;;;;;;5006297;28;20053;-67
2022/11/11 09:15:28;;;;;;;19.50;10.55;;;10.80;99.90;;;;;;5003728;28;20045;-67
2022/11/11 09:18:14;;;;;;;19.95;10.35;;;11.00;99.90;;;;;;4997022;28;20049;-66
2022/11/11 09:21:00;;;;;;;14.23;9.27;;;11.10;99.90;;;;;;5005999;28;20495;-68
2022/11/11 09:23:46;;;;;;;17.23;10.55;;;11.30;99.90;;;;;;5006283;28;20073;-68
2022/11/11 09:26:32;;;;;;;18.38;11.30;;;11.50;99.90;;;;;;5008518;28;20428;-68
2022/11/11 09:29:18;;;;;;;20.25;11.15;;;11.80;99.90;;;;;;5008377;28;20488;-67
2022/11/11 09:32:04;;;;;;;20.00;11.35;;;12.00;99.90;;;;;;5007186;28;20132;-67
2022/11/11 09:34:50;;;;;;;18.23;9.70;;;12.30;99.90;;;;;;5000809;28;20049;-68
2022/11/11 09:37:36;;;;;;;13.75;10.30;;;12.40;99.90;;;;;;5002555;28;20049;-66
2022/11/11 09:40:24;;;;;;;22.33;13.57;;;12.60;99.90;;;;;;5000503;28;20428;-67
2022/11/11 09:43:43;;;;;;;28.45;15.07;;;12.70;99.90;;;;;;4994859;28;20053;-66
2022/11/11 09:46:44;;;;;;;16.77;10.68;;;12.80;99.90;;;;;;5006656;28;20037;-67
2022/11/11 09:49:55;;;;;;;13.98;8.93;;;13.00;99.90;;;;;;5005618;28;20044;-67
2022/11/11 09:52:43;;;;;;;14.40;8.88;;;13.10;99.90;;;;;;5008281;28;20115;-66
2022/11/11 09:55:55;;;;;;;16.52;8.80;;;13.20;99.90;;;;;;5004577;28;20053;-66
2022/11/11 09:58:51;;;;;;;15.45;9.13;;;13.30;99.90;;;;;;5006108;28;20053;-67
2022/11/11 10:01:43;;;;;;;20.02;12.55;;;13.30;99.90;;;;;;5010642;28;20494;-67
2022/11/11 10:04:48;;;;;;;15.75;11.80;;;13.50;99.90;;;;;;4999228;28;20049;-66
2022/11/11 10:07:48;;;;;;;15.90;9.80;;;13.50;99.90;;;;;;5001618;28;20096;-67
2022/11/11 10:10:45;;;;;;;13.88;8.88;;;13.70;99.90;;;;;;5010967;28;20038;-67
2022/11/11 10:13:34;;;;;;;15.20;9.32;;;13.70;99.90;;;;;;5010405;28;20591;-67
2022/11/11 10:16:41;;;;;;;14.35;10.18;;;13.60;99.90;;;;;;5011583;28;20496;-68
2022/11/11 10:19:33;;;;;;;17.15;9.20;;;13.80;99.90;;;;;;5008650;28;20404;-67
2022/11/11 10:22:32;;;;;;;16.88;9.82;;;14.00;99.90;;;;;;5011013;28;20540;-67
2022/11/11 10:25:25;;;;;;;22.27;13.13;;;14.30;99.90;;;;;;5005957;28;20034;-68
2022/11/11 10:28:18;;;;;;;21.80;12.15;;;14.60;99.90;;;;;;5002966;28;20057;-67
2022/11/11 10:31:16;;;;;;;16.15;9.60;;;15.10;99.90;;;;;;5002947;28;20105;-67
2022/11/11 10:34:08;;;;;;;13.65;8.98;;;15.80;99.90;;;;;;4997707;28;20094;-68
2022/11/11 10:36:56;;;;;;;13.38;8.65;;;16.70;99.90;;;;;;5011532;28;20467;-67
2022/11/11 10:40:20;;;;;;;11.95;8.43;;;16.90;99.90;;;;;;5010152;28;20507;-68
2022/11/11 10:43:27;;;;;;;15.07;8.68;;;17.20;99.90;;;;;;5012067;28;20042;-68
2022/11/11 10:46:16;;;;;;;13.38;9.25;;;17.40;99.90;;;;;;5011507;28;20053;-68
2022/11/11 10:49:16;;;;;;;19.55;12.80;;;17.70;99.90;;;;;;4996595;28;20117;-68
2022/11/11 10:52:32;;;;;;;10.95;7.10;;;17.60;99.90;;;;;;5011313;28;20064;-67
2022/11/11 10:55:28;;;;;;;12.02;7.25;;;17.90;99.90;;;;;;5008705;28;20476;-68
2022/11/11 10:58:26;;;;;;;10.65;7.38;;;17.70;99.90;;;;;;5015093;28;20388;-66
2022/11/11 11:01:24;;;;;;;11.98;7.53;;;17.80;99.90;;;;;;5000457;28;20563;-67
2022/11/11 11:04:19;;;;;;;7.97;6.63;;;17.90;99.90;;;;;;5010195;28;20232;-68
2022/11/11 11:07:09;;;;;;;13.60;6.93;;;17.90;99.90;;;;;;5008124;28;20042;-66
2022/11/11 11:10:04;;;;;;;8.52;6.78;;;18.30;99.90;;;;;;5002992;28;20175;-67
2022/11/11 11:13:23;;;;;;;10.65;7.30;;;18.60;99.90;;;;;;5010569;28;20069;-68
2022/11/11 11:16:31;;;;;;;7.57;6.55;;;18.70;99.90;;;;;;5011092;28;20531;-66
2022/11/11 11:19:25;;;;;;;9.27;6.00;;;19.20;99.90;;;;;;5010590;28;20053;-66
2022/11/11 11:22:11;;;;;;;7.68;5.57;;;19.60;99.90;;;;;;5011109;28;20053;-67
2022/11/11 11:25:19;;;;;;;8.75;5.72;;;19.70;99.90;;;;;;5009029;28;20064;-67
2022/11/11 11:28:11;;;;;;;8.15;5.82;;;20.10;99.90;;;;;;5003611;28;20138;-66
2022/11/11 11:30:59;;;;;;;8.15;5.95;;;20.30;99.90;;;;;;5021528;28;20056;-68
2022/11/11 11:37:01;;;;;;;6.93;5.88;;;21.40;99.90;;;;;;4926838;29;20044;-68
2022/11/11 11:39:47;;;;;;;8.88;6.45;;;22.10;99.90;;;;;;4925851;29;20096;-68
2022/11/11 11:42:38;;;;;;;8.65;6.20;;;22.20;99.90;;;;;;4922087;29;20419;-68
2022/11/11 11:45:28;;;;;;;7.55;6.30;;;22.00;99.90;;;;;;4923599;29;20463;-68
2022/11/11 11:48:36;;;;;;;8.57;6.60;;;21.80;99.90;;;;;;4918822;29;20107;-67
2022/11/11 11:51:25;;;;;;;9.02;6.55;;;21.80;99.90;;;;;;4911796;29;20041;-67
2022/11/11 11:54:13;;;;;;;9.65;6.40;;;22.00;99.90;;;;;;4914449;29;20051;-68
2022/11/11 11:57:13;;;;;;;8.80;6.00;;;22.20;99.90;;;;;;4919554;29;20191;-67
2022/11/11 12:00:12;;;;;;;8.63;6.20;;;22.10;99.90;;;;;;4914436;29;20056;-68
2022/11/11 12:03:12;;;;;;;9.57;6.20;;;22.00;99.90;;;;;;4931137;29;20055;-66
2022/11/11 12:06:25;;;;;;;6.90;6.03;;;22.40;99.90;;;;;;4932403;29;20527;-66
2022/11/11 12:09:55;;;;;;;9.50;6.10;;;23.00;99.90;;;;;;4919042;29;20103;-67
2022/11/11 12:12:57;;;;;;;7.28;5.95;;;22.50;99.90;;;;;;4918124;29;20044;-67
2022/11/11 12:15:57;;;;;;;7.80;5.95;;;22.40;99.90;;;;;;4928543;29;20140;-67
2022/11/11 12:18:58;;;;;;;9.50;6.25;;;22.00;99.90;;;;;;4924210;29;20537;-67
2022/11/11 12:22:23;;;;;;;9.10;6.57;;;21.60;99.90;;;;;;4920370;29;20434;-68
2022/11/11 12:25:21;;;;;;;6.63;5.90;;;20.70;99.90;;;;;;4917006;29;20146;-66
2022/11/11 12:28:16;;;;;;;7.80;6.03;;;20.10;99.90;;;;;;4913240;29;20104;-67
2022/11/11 12:31:13;;;;;;;7.00;6.30;;;20.00;99.90;;;;;;4912089;29;20059;-67
2022/11/11 12:34:15;;;;;;;6.95;6.07;;;19.60;99.90;;;;;;4906650;29;20248;-66
2022/11/11 12:37:17;;;;;;;6.30;5.50;;;19.90;99.90;;;;;;4899234;29;20051;-66
2022/11/11 12:40:34;;;;;;;8.60;5.40;;;20.30;99.90;;;;;;4912190;29;20118;-67
2022/11/11 12:43:53;;;;;;;8.13;5.60;;;20.50;99.90;;;;;;4909697;29;20055;-68
2022/11/11 12:47:11;;;;;;;7.05;5.40;;;20.50;99.90;;;;;;4905353;29;20040;-67
2022/11/11 12:50:03;;;;;;;9.98;5.18;;;20.80;99.90;;;;;;4906680;29;20824;-67
2022/11/11 12:53:21;;;;;;;9.82;6.00;;;21.00;99.90;;;;;;4912274;29;20127;-67
2022/11/11 12:56:41;;;;;;;7.18;6.35;;;21.00;99.90;;;;;;4906860;29;20063;-67
2022/11/11 13:00:02;;;;;;;7.60;5.90;;;21.50;99.90;;;;;;4910117;29;20123;-67
2022/11/11 13:03:03;;;;;;;8.00;5.72;;;21.80;99.90;;;;;;4902119;29;20055;-68
2022/11/11 13:06:07;;;;;;;7.57;5.10;;;22.10;99.90;;;;;;4916644;29;20033;-67
2022/11/11 13:08:59;;;;;;;6.70;5.15;;;22.30;99.90;;;;;;4905563;29;20524;-67
2022/11/11 13:11:55;;;;;;;6.40;5.30;;;22.50;99.90;;;;;;4908126;29;20139;-67
2022/11/11 13:14:59;;;;;;;6.72;5.28;;;22.90;99.90;;;;;;4905027;29;20051;-67
2022/11/11 13:17:44;;;;;;;10.07;5.65;;;23.60;99.90;;;;;;4910445;29;20553;-68
2022/11/11 13:20:46;;;;;;;6.55;4.95;;;23.90;99.90;;;;;;4911851;29;20048;-67
2022/11/11 13:23:32;;;;;;;;;;;24.00;99.90;;;;;;4913549;29;20047;-66
2022/11/11 13:26:50;;;;;;;7.97;4.95;;;23.60;99.90;;;;;;4914798;29;19945;-67
2022/11/11 13:30:04;;;;;;;9.10;5.60;;;23.40;99.90;;;;;;4916315;29;20047;-65
2022/11/11 13:32:59;;;;;;;7.63;5.10;;;23.90;99.90;;;;;;4902279;29;20043;-66
2022/11/11 13:35:51;;;;;;;8.07;5.82;;;24.10;99.90;;;;;;4914919;29;20498;-65
2022/11/11 13:38:49;;;;;;;11.18;9.10;;;24.90;99.90;;;;;;4915754;29;20088;-65
2022/11/11 13:41:39;;;;;;;6.30;5.70;;;25.20;99.90;;;;;;4911493;29;20067;-66
2022/11/11 13:44:44;;;;;;;7.10;5.22;;;25.40;99.90;;;;;;4907268;29;20055;-66
2022/11/11 13:47:37;;;;;;;7.65;5.10;;;25.40;99.90;;;;;;4908944;29;20403;-68
2022/11/11 13:50:30;;;;;;;6.38;5.25;;;25.50;99.90;;;;;;4913949;29;20499;-67
2022/11/11 13:53:25;;;;;;;;;;;25.50;99.90;;;;;;4913689;29;20135;-68
2022/11/11 13:56:20;;;;;;;5.93;4.88;;;24.90;99.90;;;;;;4905614;29;19931;-67
2022/11/11 13:59:15;;;;;;;7.00;4.75;;;24.40;99.90;;;;;;4915747;29;20048;-67
2022/11/11 14:02:34;;;;;;;8.27;4.95;;;23.50;99.90;;;;;;4915639;29;20492;-66
2022/11/11 14:05:21;;;;;;;5.55;4.43;;;22.90;99.90;;;;;;4885647;29;20059;-67
2022/11/11 14:08:07;;;;;;;5.65;4.70;;;23.60;99.90;;;;;;4906177;29;20563;-67
2022/11/11 14:10:57;;;;;;;6.50;5.47;;;24.30;99.90;;;;;;4899618;29;20079;-67
2022/11/11 14:13:44;;;;;;;5.40;4.90;;;24.80;99.90;;;;;;4904642;29;20052;-66
2022/11/11 14:16:35;;;;;;;5.95;4.63;;;25.50;99.90;;;;;;4913308;29;20520;-67
2022/11/11 14:19:21;;;;;;;5.80;4.38;;;26.40;99.90;;;;;;4913826;29;20051;-67
2022/11/11 14:22:32;;;;;;;8.02;4.72;;;27.00;99.90;;;;;;4913092;29;20411;-67
2022/11/11 14:25:25;;;;;;;6.45;5.55;;;27.00;99.60;;;;;;4910865;29;20115;-66
2022/11/11 14:28:20;;;;;;;6.35;5.63;;;26.70;99.20;;;;;;4912319;29;20108;-68
2022/11/11 14:31:12;;;;;;;6.03;5.43;;;26.30;99.70;;;;;;4908006;29;20041;-66
2022/11/11 14:34:32;;;;;;;6.82;5.55;;;25.30;99.90;;;;;;4898272;29;20048;-67
2022/11/11 14:37:49;;;;;;;7.43;5.78;;;24.70;99.90;;;;;;4906404;29;20078;-67
2022/11/11 14:40:37;;;;;;;8.20;5.22;;;23.60;99.90;;;;;;4909160;29;20067;-68
2022/11/11 14:43:41;;;;;;;7.53;5.57;;;22.90;99.90;;;;;;4912470;29;20238;-68
2022/11/11 14:46:27;;;;;;;9.13;5.78;;;22.10;99.90;;;;;;4915300;29;20051;-67
2022/11/11 14:49:53;;;;;;;7.50;5.93;;;21.50;99.90;;;;;;4915093;29;20048;-67
2022/11/11 14:52:41;;;;;;;7.03;5.60;;;20.60;99.90;;;;;;4904170;29;20040;-68
2022/11/11 14:55:33;;;;;;;6.57;5.57;;;19.90;99.90;;;;;;4903616;29;20194;-66
2022/11/11 14:58:33;;;;;;;7.85;5.68;;;19.10;99.90;;;;;;4910966;29;20461;-66
2022/11/11 15:01:20;;;;;;;6.43;5.78;;;18.60;99.90;;;;;;4911257;29;20048;-65
2022/11/11 15:04:07;;;;;;;12.35;7.50;;;18.30;99.90;;;;;;4913326;29;20059;-67
2022/11/11 15:06:58;;;;;;;8.70;6.57;;;17.80;99.90;;;;;;4909915;29;20420;-67
2022/11/11 15:09:59;;;;;;;10.30;6.77;;;17.30;99.90;;;;;;4902374;29;20172;-67
2022/11/11 15:13:29;;;;;;;11.23;8.10;;;16.80;99.90;;;;;;4908330;29;20043;-66
2022/11/11 15:16:33;;;;;;;14.40;7.28;;;16.50;99.90;;;;;;4908433;29;20060;-67
2022/11/11 15:19:46;;;;;;;12.50;7.75;;;16.60;99.90;;;;;;4911661;29;20116;-68
2022/11/11 15:23:03;;;;;;;7.90;6.65;;;16.80;99.90;;;;;;4907170;29;20074;-68
2022/11/11 15:25:59;;;;;;;8.50;6.90;;;16.70;99.90;;;;;;4910334;29;20123;-66
2022/11/11 15:29:12;;;;;;;7.93;6.38;;;16.20;99.90;;;;;;4900776;29;20538;-66
2022/11/11 15:32:11;;;;;;;8.10;6.47;;;15.70;99.90;;;;;;4907944;29;20045;-67
2022/11/11 15:35:08;;;;;;;9.82;6.63;;;15.30;99.90;;;;;;4916254;29;20066;-67
2022/11/11 15:37:58;;;;;;;9.57;6.57;;;14.70;99.90;;;;;;4912845;29;20040;-65
2022/11/11 15:40:49;;;;;;;11.63;7.30;;;14.20;99.90;;;;;;4913682;29;20062;-67
2022/11/11 15:43:38;;;;;;;9.77;6.40;;;13.80;99.90;;;;;;4913685;29;20051;-67
2022/11/11 15:46:27;;;;;;;12.27;6.90;;;13.50;99.90;;;;;;4897716;29;20099;-67
2022/11/11 15:49:37;;;;;;;11.85;6.57;;;13.20;99.90;;;;;;4912833;29;20515;-67
2022/11/11 15:52:30;;;;;;;10.55;7.68;;;12.80;99.90;;;;;;4906156;29;20151;-66
2022/11/11 15:55:27;;;;;;;9.65;6.72;;;12.60;99.90;;;;;;4913722;29;20060;-68
2022/11/11 15:58:13;;;;;;;9.98;6.88;;;12.30;99.90;;;;;;4912730;29;20053;-66
2022/11/11 16:01:03;;;;;;;10.70;6.93;;;12.10;99.90;;;;;;4910480;29;20081;-67
2022/11/11 16:03:49;;;;;;;11.98;6.20;;;12.00;99.90;;;;;;4890324;29;20474;-66
2022/11/11 16:06:37;;;;;;;11.77;6.28;;;11.80;99.90;;;;;;4910049;29;20088;-65
2022/11/11 16:09:26;;;;;;;8.77;6.35;;;11.70;99.90;;;;;;4912823;29;20079;-65
2022/11/11 16:12:23;;;;;;;9.35;6.30;;;11.60;99.90;;;;;;4913378;29;20098;-67